createdAt,value
2019-02-05T00:03:14.090Z,3.28
2019-02-05T00:08:20.078Z,3.29
2019-02-05T00:13:26.060Z,4.81
2019-02-05T00:18:32.070Z,4.86
2019-02-05T00:23:38.056Z,3.15
2019-02-05T00:28:44.032Z,3.36
2019-02-05T00:33:50.130Z,3.40
2019-02-05T00:38:56.150Z,3.46
2019-02-05T00:44:02.177Z,3.35
2019-02-05T00:49:08.155Z,3.44
2019-02-05T00:54:14.119Z,5.33
2019-02-05T00:59:20.131Z,3.40
2019-02-05T01:04:26.116Z,5.16
2019-02-05T01:09:32.146Z,3.42
2019-02-05T01:14:38.164Z,3.29
2019-02-05T01:19:44.179Z,3.35
2019-02-05T01:24:50.227Z,3.18
2019-02-05T01:29:56.232Z,3.42
2019-02-05T01:35:02.233Z,3.12
2019-02-05T01:40:08.218Z,3.18
2019-02-05T01:45:14.201Z,4.64
2019-02-05T01:50:20.183Z,4.90
2019-02-05T01:55:26.185Z,3.35
2019-02-05T02:00:32.178Z,2.84
2019-02-05T02:05:38.179Z,2.94
2019-02-05T02:10:44.163Z,2.69
2019-02-05T02:15:50.160Z,4.39
2019-02-05T02:20:56.184Z,2.88
2019-02-05T02:26:02.237Z,3.02
2019-02-05T02:31:08.198Z,3.03
2019-02-05T02:36:14.223Z,3.20
2019-02-05T02:41:20.223Z,3.14
2019-02-05T02:46:26.211Z,2.95
2019-02-05T02:51:32.200Z,2.79
2019-02-05T02:56:38.182Z,2.94
2019-02-05T03:01:44.162Z,2.89
2019-02-05T03:06:50.147Z,2.97
2019-02-05T03:11:56.183Z,2.93
2019-02-05T03:17:02.242Z,2.96
2019-02-05T03:22:08.232Z,4.66
2019-02-05T03:27:18.114Z,3.02
2019-02-05T03:32:19.838Z,3.20
2019-02-05T03:37:25.789Z,3.07
2019-02-05T03:42:31.871Z,3.51
2019-02-05T03:47:37.852Z,3.08
2019-02-05T03:52:43.883Z,4.53
2019-02-05T03:57:49.924Z,3.16
2019-02-05T04:02:55.910Z,4.86
2019-02-05T04:08:01.934Z,3.82
2019-02-05T04:13:07.916Z,4.02
2019-02-05T04:18:13.944Z,3.69
2019-02-05T04:23:19.928Z,3.41
2019-02-05T04:28:25.908Z,4.07
2019-02-05T04:33:31.998Z,3.98
2019-02-05T04:38:38.090Z,4.02
2019-02-05T04:43:44.104Z,4.49
2019-02-05T04:48:50.085Z,4.91
2019-02-05T04:53:56.095Z,4.82
2019-02-05T04:59:02.111Z,5.07
2019-02-05T05:04:08.080Z,7.71
2019-02-05T05:09:14.078Z,7.73
2019-02-05T05:14:20.094Z,4.70
2019-02-05T05:19:26.148Z,5.25
2019-02-05T05:24:32.181Z,5.81
2019-02-05T05:29:38.151Z,7.84
2019-02-05T05:34:44.115Z,8.33
2019-02-05T05:39:50.088Z,8.82
2019-02-05T05:44:56.096Z,7.73
2019-02-05T05:50:02.081Z,6.02
2019-02-05T05:55:08.074Z,5.72
2019-02-05T06:00:14.180Z,5.18
2019-02-05T06:05:20.327Z,5.08
2019-02-05T06:10:26.351Z,5.69
2019-02-05T06:15:32.396Z,7.42
2019-02-05T06:20:38.469Z,5.03
2019-02-05T06:25:44.546Z,5.53
2019-02-05T06:30:50.520Z,5.18
2019-02-05T06:35:56.519Z,6.02
2019-02-05T06:41:02.520Z,8.27
2019-02-05T06:46:08.500Z,4.83
2019-02-05T06:51:14.493Z,6.25
2019-02-05T06:56:20.637Z,5.47
2019-02-05T07:01:26.647Z,5.83
2019-02-05T07:06:32.684Z,5.59
2019-02-05T07:11:38.674Z,8.30
2019-02-05T07:16:44.681Z,5.33
2019-02-05T07:21:50.712Z,5.31
2019-02-05T07:26:56.725Z,5.10
2019-02-05T07:32:02.750Z,5.51
2019-02-05T07:37:08.748Z,7.50
2019-02-05T07:42:14.728Z,5.77
2019-02-05T07:47:23.418Z,5.53
2019-02-05T07:52:26.419Z,5.68
2019-02-05T07:57:32.386Z,5.62
2019-02-05T08:02:38.496Z,5.24
2019-02-05T08:07:44.558Z,8.69
2019-02-05T08:12:50.564Z,7.63
2019-02-05T08:17:56.555Z,4.87
2019-02-05T08:23:02.548Z,5.69
2019-02-05T08:28:08.504Z,5.52
2019-02-05T08:33:14.571Z,5.75
2019-02-05T08:38:20.586Z,5.78
2019-02-05T08:43:26.561Z,5.87
2019-02-05T08:48:32.556Z,5.88
2019-02-05T08:53:38.584Z,8.53
2019-02-05T08:58:44.658Z,5.97
2019-02-05T09:03:50.693Z,6.92
2019-02-05T09:08:56.725Z,7.93
2019-02-05T09:14:10.549Z,7.52
2019-02-05T09:19:08.255Z,11.97
2019-02-05T09:24:14.251Z,7.56
2019-02-05T09:29:20.275Z,12.25
2019-02-05T09:34:26.268Z,6.87
2019-02-05T09:39:32.357Z,9.03
2019-02-05T09:44:38.399Z,7.72
2019-02-05T09:49:44.394Z,8.12
2019-02-05T09:54:50.389Z,7.90
2019-02-05T09:59:56.383Z,6.16
2019-02-05T10:05:02.429Z,5.93
2019-02-05T10:10:08.438Z,7.80
2019-02-05T10:15:14.442Z,10.28
2019-02-05T10:20:20.505Z,6.75
2019-02-05T10:25:26.536Z,6.62
2019-02-05T10:30:32.545Z,6.71
2019-02-05T10:35:38.076Z,5.97
2019-02-05T10:40:44.080Z,6.61
2019-02-05T10:45:50.115Z,5.66
2019-02-05T10:50:56.126Z,5.78
2019-02-05T10:56:02.166Z,8.40
2019-02-05T11:01:08.169Z,6.52
2019-02-05T11:06:14.168Z,9.65
2019-02-05T11:11:20.153Z,6.74
2019-02-05T11:16:26.141Z,6.46
2019-02-05T11:21:32.215Z,7.88
2019-02-05T11:26:38.234Z,6.50
2019-02-05T11:31:44.211Z,9.30
2019-02-05T11:36:50.248Z,10.22
2019-02-05T11:41:56.264Z,7.28
2019-02-05T11:47:03.966Z,9.15
2019-02-05T11:52:09.772Z,6.55
2019-02-05T11:57:13.272Z,9.04
2019-02-05T12:02:19.264Z,8.85
2019-02-05T12:07:25.323Z,5.88
2019-02-05T12:12:31.353Z,5.95
2019-02-05T12:17:37.347Z,5.27
2019-02-05T12:22:43.376Z,4.66
2019-02-05T12:27:49.474Z,5.33
2019-02-05T12:32:55.549Z,4.07
2019-02-05T12:38:01.584Z,4.03
2019-02-05T12:43:07.601Z,4.00
2019-02-05T12:48:13.635Z,4.26
2019-02-05T12:53:19.661Z,4.03
2019-02-05T12:58:25.697Z,4.10
2019-02-05T13:03:31.724Z,4.44
2019-02-05T13:08:37.827Z,5.51
2019-02-05T13:13:43.885Z,3.76
2019-02-05T13:18:51.894Z,5.23
2019-02-05T13:23:55.522Z,3.69
2019-02-05T13:29:01.534Z,6.11
2019-02-05T13:34:07.586Z,3.48
2019-02-05T13:39:13.565Z,6.20
2019-02-05T13:44:19.635Z,3.52
2019-02-05T13:49:25.659Z,5.44
2019-02-05T13:54:31.682Z,3.94
2019-02-05T13:59:37.702Z,3.97
2019-02-05T14:04:43.734Z,3.77
2019-02-05T14:09:49.722Z,5.77
2019-02-05T14:14:55.780Z,4.12
2019-02-05T14:20:01.859Z,6.64
2019-02-05T14:25:08.037Z,6.75
2019-02-05T14:30:14.107Z,4.01
2019-02-05T14:35:20.142Z,5.89
2019-02-05T14:40:26.165Z,4.83
2019-02-05T14:45:32.299Z,3.98
2019-02-05T14:50:38.608Z,4.48
2019-02-05T14:55:44.640Z,8.19
2019-02-05T15:00:50.614Z,4.62
2019-02-05T15:05:56.623Z,4.73
2019-02-05T15:11:02.710Z,4.39
2019-02-05T15:16:08.741Z,6.94
2019-02-05T15:21:14.867Z,4.84
2019-02-05T15:26:20.869Z,8.31
2019-02-05T15:31:26.975Z,5.76
2019-02-05T15:36:33.117Z,6.07
2019-02-05T15:41:39.185Z,6.54
2019-02-05T15:46:45.347Z,6.58
2019-02-05T15:51:51.380Z,10.80
2019-02-05T15:56:57.459Z,7.42
2019-02-05T16:02:06.356Z,7.18
2019-02-05T16:07:09.045Z,7.63
2019-02-05T16:12:15.066Z,10.73
2019-02-05T16:17:21.121Z,7.93
2019-02-05T16:22:27.395Z,8.83
2019-02-05T16:27:33.585Z,8.01
2019-02-05T16:32:39.631Z,7.94
2019-02-05T16:37:45.814Z,8.65
2019-02-05T16:42:51.749Z,9.31
2019-02-05T16:47:57.756Z,7.79
2019-02-05T16:53:03.907Z,8.23
2019-02-05T16:58:09.940Z,12.30
2019-02-05T17:03:15.982Z,8.83
2019-02-05T17:08:21.991Z,8.41
2019-02-05T17:13:27.980Z,8.56
2019-02-05T17:18:34.039Z,8.13
2019-02-05T17:23:40.182Z,11.71
2019-02-05T17:28:46.330Z,11.77
2019-02-05T17:33:52.339Z,8.03
2019-02-05T17:38:58.519Z,8.35
2019-02-05T17:44:04.585Z,7.58
2019-02-05T17:49:12.201Z,7.80
2019-02-05T17:54:16.153Z,7.76
2019-02-05T17:59:22.145Z,7.68
2019-02-05T18:04:28.177Z,7.71
2019-02-05T18:09:34.287Z,11.81
2019-02-05T18:14:40.343Z,8.50
2019-02-05T18:19:46.370Z,7.78
2019-02-05T18:24:52.433Z,8.09
2019-02-05T18:29:58.497Z,8.10
2019-02-05T18:35:04.591Z,8.50
2019-02-05T18:40:10.616Z,8.86
2019-02-05T18:45:16.683Z,8.55
2019-02-05T18:50:22.816Z,8.65
2019-02-05T18:55:28.850Z,8.30
2019-02-05T19:00:34.809Z,8.14
2019-02-05T19:05:41.352Z,8.45
2019-02-05T19:10:47.372Z,8.76
2019-02-05T19:15:53.427Z,8.75
2019-02-05T19:20:59.504Z,12.42
2019-02-05T19:26:08.303Z,13.01
2019-02-05T19:31:11.127Z,13.53
2019-02-05T19:36:17.177Z,8.56
2019-02-05T19:41:23.251Z,8.41
2019-02-05T19:46:29.357Z,8.77
2019-02-05T19:51:35.642Z,9.45
2019-02-05T19:56:42.035Z,9.34
2019-02-05T20:01:48.126Z,13.62
2019-02-05T20:06:54.265Z,13.48
2019-02-05T20:12:00.252Z,8.66
2019-02-05T20:17:06.318Z,9.08
2019-02-05T20:22:12.393Z,8.96
2019-02-05T20:27:18.414Z,9.78
2019-02-05T20:32:24.565Z,9.64
2019-02-05T20:37:30.683Z,11.02
2019-02-05T20:42:36.795Z,10.08
2019-02-05T20:47:42.917Z,9.59
2019-02-05T20:52:49.096Z,9.17
2019-02-05T20:57:55.111Z,10.25
2019-02-05T21:03:01.152Z,9.98
2019-02-05T21:08:07.167Z,10.26
2019-02-05T21:13:13.197Z,9.51
2019-02-05T21:18:19.236Z,8.90
2019-02-05T21:23:25.238Z,9.32
2019-02-05T21:28:31.284Z,9.38
2019-02-05T21:33:37.357Z,9.04
2019-02-05T21:38:45.436Z,8.50
2019-02-05T21:43:49.115Z,7.75
2019-02-05T21:48:55.180Z,11.70
2019-02-05T21:54:01.223Z,11.52
2019-02-05T21:59:07.455Z,8.70
2019-02-05T22:04:13.529Z,13.11
2019-02-05T22:09:19.564Z,9.15
2019-02-05T22:14:25.652Z,9.28
2019-02-05T22:19:31.789Z,10.79
2019-02-05T22:24:37.838Z,9.75
2019-02-05T22:29:43.876Z,16.33
2019-02-05T22:34:50.078Z,10.44
2019-02-05T22:39:56.102Z,15.65
2019-02-05T22:45:02.100Z,10.80
2019-02-05T22:50:08.239Z,9.36
2019-02-05T22:55:14.291Z,9.14
2019-02-05T23:00:20.306Z,13.00
2019-02-05T23:05:26.382Z,8.33
2019-02-05T23:10:32.535Z,8.33
2019-02-05T23:15:38.521Z,8.40
2019-02-05T23:20:44.535Z,8.35
2019-02-05T23:25:50.522Z,7.97
2019-02-05T23:30:56.599Z,8.46
2019-02-05T23:36:02.600Z,8.17
2019-02-05T23:41:08.551Z,11.75
2019-02-05T23:46:14.584Z,12.16
2019-02-05T23:51:20.601Z,7.66
2019-02-05T23:56:26.645Z,8.07
